createdAt,value
2022-10-14T00:00:45.028Z,3.80
2022-10-14T00:03:11.774Z,3.67
2022-10-14T00:05:41.965Z,3.93
2022-10-14T00:08:09.776Z,3.57
2022-10-14T00:10:40.418Z,3.87
2022-10-14T00:13:07.443Z,4.00
2022-10-14T00:15:43.218Z,3.53
2022-10-14T00:18:11.000Z,3.60
2022-10-14T00:20:37.698Z,3.83
2022-10-14T00:23:04.471Z,3.90
2022-10-14T00:25:31.739Z,3.90
2022-10-14T00:27:58.539Z,4.30
2022-10-14T00:30:25.696Z,4.03
2022-10-14T00:32:52.496Z,4.33
2022-10-14T00:35:19.553Z,4.47
2022-10-14T00:37:46.862Z,3.97
2022-10-14T00:40:13.665Z,4.20
2022-10-14T00:42:40.794Z,4.40
2022-10-14T00:45:13.534Z,4.20
2022-10-14T00:47:42.574Z,4.70
2022-10-14T00:50:10.424Z,4.60
2022-10-14T00:52:37.458Z,4.70
2022-10-14T00:55:10.389Z,3.97
2022-10-14T00:57:38.680Z,4.00
2022-10-14T01:00:12.410Z,3.40
2022-10-14T01:02:39.725Z,4.43
2022-10-14T01:05:10.591Z,4.00
2022-10-14T01:07:58.442Z,4.30
2022-10-14T01:10:51.509Z,4.53
2022-10-14T01:13:32.911Z,4.17
2022-10-14T01:16:05.415Z,4.43
2022-10-14T01:19:16.964Z,4.00
2022-10-14T01:21:47.849Z,4.00
2022-10-14T01:24:17.418Z,4.43
2022-10-14T01:27:02.225Z,4.40
2022-10-14T01:30:02.470Z,4.67
2022-10-14T01:33:06.054Z,4.67
2022-10-14T01:35:39.993Z,4.50
2022-10-14T01:38:18.833Z,4.67
2022-10-14T01:40:58.111Z,4.40
2022-10-14T01:43:29.009Z,4.47
2022-10-14T01:45:58.636Z,5.00
2022-10-14T01:48:31.293Z,4.20
2022-10-14T01:51:02.619Z,4.20
2022-10-14T01:53:35.399Z,4.07
2022-10-14T01:56:03.215Z,4.10
2022-10-14T01:58:32.667Z,4.27
2022-10-14T02:01:06.216Z,4.80
2022-10-14T02:03:41.881Z,4.03
2022-10-14T02:06:16.380Z,4.97
2022-10-14T02:09:08.635Z,3.80
2022-10-14T02:11:51.053Z,3.63
2022-10-14T02:14:43.846Z,3.20
2022-10-14T02:17:35.895Z,3.47
2022-10-14T02:20:16.559Z,3.90
2022-10-14T02:22:48.353Z,3.23
2022-10-14T02:25:27.124Z,3.70
2022-10-14T02:27:54.475Z,3.50
2022-10-14T02:30:21.990Z,2.80
2022-10-14T02:32:57.510Z,3.00
2022-10-14T02:35:25.221Z,2.67
2022-10-14T02:37:55.540Z,2.30
2022-10-14T02:40:31.782Z,2.67
2022-10-14T02:42:59.678Z,2.90
2022-10-14T02:45:27.340Z,2.90
2022-10-14T02:47:54.676Z,2.50
2022-10-14T02:50:22.155Z,2.80
2022-10-14T02:52:51.506Z,2.43
2022-10-14T02:55:18.246Z,2.60
2022-10-14T02:57:45.136Z,3.10
2022-10-14T03:00:12.655Z,2.83
2022-10-14T03:02:41.653Z,2.90
2022-10-14T03:05:09.279Z,3.10
2022-10-14T03:07:36.379Z,3.10
2022-10-14T03:10:07.414Z,3.17
2022-10-14T03:12:36.214Z,2.73
2022-10-14T03:15:03.856Z,2.70
2022-10-14T03:17:32.187Z,3.40
2022-10-14T03:20:05.171Z,2.87
2022-10-14T03:22:35.135Z,3.27
2022-10-14T03:25:03.191Z,2.70
2022-10-14T03:27:41.091Z,2.73
2022-10-14T03:30:12.382Z,2.60
2022-10-14T03:32:49.675Z,2.77
2022-10-14T03:35:32.373Z,3.30
2022-10-14T03:38:03.335Z,2.90
2022-10-14T03:40:33.794Z,3.20
2022-10-14T03:43:02.459Z,2.90
2022-10-14T03:45:37.625Z,3.10
2022-10-14T03:48:05.798Z,2.93
2022-10-14T03:50:33.473Z,3.33
2022-10-14T03:53:00.274Z,3.57
2022-10-14T03:55:33.856Z,2.70
2022-10-14T03:58:01.183Z,2.77
2022-10-14T04:00:28.906Z,2.87
2022-10-14T04:03:09.045Z,2.80
2022-10-14T04:05:39.295Z,2.87
2022-10-14T04:08:11.616Z,2.77
2022-10-14T04:10:42.101Z,2.80
2022-10-14T04:13:12.282Z,2.57
2022-10-14T04:15:40.038Z,2.67
2022-10-14T04:18:15.474Z,2.60
2022-10-14T04:20:43.563Z,2.70
2022-10-14T04:23:10.902Z,2.90
2022-10-14T04:25:40.687Z,2.57
2022-10-14T04:28:07.853Z,2.30
2022-10-14T04:30:48.917Z,2.50
2022-10-14T04:33:21.899Z,2.87
2022-10-14T04:35:49.921Z,2.50
2022-10-14T04:38:24.661Z,2.80
2022-10-14T04:40:56.982Z,2.80
2022-10-14T04:43:24.111Z,2.80
2022-10-14T04:45:51.689Z,2.40
2022-10-14T04:48:24.635Z,2.53
2022-10-14T04:50:52.513Z,2.53
2022-10-14T04:53:40.725Z,2.73
2022-10-14T04:56:19.366Z,2.60
2022-10-14T04:58:55.867Z,2.70
2022-10-14T05:01:33.915Z,3.00
2022-10-14T05:04:00.978Z,2.53
2022-10-14T05:06:29.817Z,2.93
2022-10-14T05:08:56.670Z,2.80
2022-10-14T05:11:23.686Z,2.80
2022-10-14T05:13:54.947Z,2.67
2022-10-14T05:16:22.702Z,2.90
2022-10-14T05:18:49.798Z,2.60
2022-10-14T05:21:18.281Z,2.60
2022-10-14T05:23:53.200Z,2.60
2022-10-14T05:26:20.113Z,2.57
2022-10-14T05:28:48.547Z,2.43
2022-10-14T05:31:15.523Z,2.40
2022-10-14T05:33:49.898Z,2.37
2022-10-14T05:36:17.142Z,2.50
2022-10-14T05:38:44.359Z,2.93
2022-10-14T05:41:11.109Z,2.83
2022-10-14T05:43:38.832Z,3.10
2022-10-14T05:46:06.474Z,3.07
2022-10-14T05:48:37.998Z,2.43
2022-10-14T05:51:05.207Z,2.63
2022-10-14T05:53:34.993Z,2.93
2022-10-14T05:56:07.460Z,3.10
2022-10-14T05:58:36.698Z,2.37
2022-10-14T06:01:06.411Z,2.33
2022-10-14T06:03:33.760Z,2.83
2022-10-14T06:06:01.372Z,2.30
2022-10-14T06:08:30.110Z,2.70
2022-10-14T06:10:56.918Z,2.70
2022-10-14T06:13:23.891Z,2.67
2022-10-14T06:15:51.575Z,2.10
2022-10-14T06:18:18.854Z,2.40
2022-10-14T06:20:51.935Z,2.03
2022-10-14T06:23:18.994Z,2.50
2022-10-14T06:25:45.821Z,2.57
2022-10-14T06:28:12.494Z,2.13
2022-10-14T06:30:39.286Z,2.20
2022-10-14T06:33:06.094Z,2.13
2022-10-14T06:35:32.930Z,2.40
2022-10-14T06:37:59.710Z,2.53
2022-10-14T06:40:26.446Z,2.03
2022-10-14T06:42:53.782Z,2.20
2022-10-14T06:45:20.540Z,2.20
2022-10-14T06:47:47.783Z,1.80
2022-10-14T06:50:14.614Z,2.30
2022-10-14T06:52:41.362Z,2.35
2022-10-14T06:55:08.171Z,2.13
2022-10-14T06:57:35.402Z,2.10
2022-10-14T07:00:02.416Z,2.10
2022-10-14T07:02:29.396Z,1.83
2022-10-14T07:04:56.061Z,2.30
2022-10-14T07:07:22.785Z,2.50
2022-10-14T07:09:50.283Z,2.28
2022-10-14T07:12:17.062Z,2.22
2022-10-14T07:14:43.794Z,2.67
2022-10-14T07:17:10.782Z,2.60
2022-10-14T07:19:37.475Z,3.38
2022-10-14T07:22:05.565Z,2.97
2022-10-14T07:24:33.007Z,2.75
2022-10-14T07:29:33.392Z,2.00
2022-10-14T07:32:00.221Z,2.15
2022-10-14T07:34:27.586Z,2.00
2022-10-14T07:36:54.406Z,2.03
2022-10-14T07:39:21.181Z,1.58
2022-10-14T07:41:49.786Z,1.55
2022-10-14T07:44:17.398Z,1.13
2022-10-14T07:46:45.339Z,1.23
2022-10-14T07:49:17.788Z,0.85
2022-10-14T07:51:46.385Z,1.00
2022-10-14T07:54:25.837Z,1.30
2022-10-14T07:56:53.116Z,1.17
2022-10-14T07:59:21.604Z,0.90
2022-10-14T08:01:50.213Z,0.88
2022-10-14T08:04:17.789Z,0.98
2022-10-14T08:06:47.367Z,0.93
2022-10-14T08:09:14.143Z,0.70
2022-10-14T08:11:41.159Z,0.82
2022-10-14T08:14:07.870Z,0.80
2022-10-14T08:16:36.289Z,1.23
2022-10-14T08:19:12.626Z,0.80
2022-10-14T08:21:41.806Z,1.10
2022-10-14T08:24:08.625Z,0.82
2022-10-14T08:26:38.211Z,1.13
2022-10-14T08:29:08.245Z,0.82
2022-10-14T08:31:35.407Z,0.80
2022-10-14T08:34:02.157Z,1.05
2022-10-14T08:36:28.943Z,0.75
2022-10-14T08:38:55.995Z,0.68
2022-10-14T08:41:31.811Z,0.60
2022-10-14T08:44:26.083Z,1.10
2022-10-14T08:46:52.747Z,0.73
2022-10-14T08:49:43.706Z,0.65
2022-10-14T08:52:27.817Z,0.55
2022-10-14T08:55:04.277Z,0.70
2022-10-14T08:57:43.860Z,0.52
2022-10-14T09:00:12.404Z,0.70
2022-10-14T09:02:45.990Z,0.90
2022-10-14T09:05:26.259Z,0.75
2022-10-14T09:07:56.568Z,0.60
2022-10-14T09:10:40.022Z,0.50
2022-10-14T09:13:26.322Z,0.30
2022-10-14T09:16:01.005Z,0.40
2022-10-14T09:18:42.334Z,0.70
2022-10-14T09:21:27.765Z,0.40
2022-10-14T09:24:13.898Z,0.60
2022-10-14T09:26:46.761Z,0.60
2022-10-14T09:29:36.816Z,0.60
2022-10-14T09:32:08.276Z,0.50
2022-10-14T09:34:44.472Z,0.50
2022-10-14T09:37:37.674Z,0.73
2022-10-14T09:40:07.526Z,0.70
2022-10-14T09:42:58.866Z,0.68
2022-10-14T09:45:28.155Z,0.63
2022-10-14T09:48:04.309Z,0.47
2022-10-14T09:50:44.990Z,0.70
2022-10-14T09:53:27.647Z,0.50
2022-10-14T09:55:58.474Z,0.60
2022-10-14T09:58:46.888Z,0.40
2022-10-14T10:01:19.920Z,0.40
2022-10-14T10:03:48.483Z,0.50
2022-10-14T10:06:19.533Z,0.40
2022-10-14T10:08:55.709Z,0.57
2022-10-14T10:11:39.168Z,0.38
2022-10-14T10:14:22.819Z,0.50
2022-10-14T10:17:07.777Z,0.60
2022-10-14T10:19:38.608Z,0.60
2022-10-14T10:22:31.452Z,0.40
2022-10-14T10:25:01.116Z,0.43
2022-10-14T10:27:29.045Z,0.40
2022-10-14T10:29:56.280Z,0.40
2022-10-14T10:33:00.106Z,0.38
2022-10-14T10:35:33.050Z,0.38
2022-10-14T10:38:19.228Z,0.50
2022-10-14T10:40:52.000Z,0.30
2022-10-14T10:43:57.453Z,0.35
2022-10-14T10:46:30.203Z,0.40
2022-10-14T10:49:08.661Z,0.43
2022-10-14T10:51:45.725Z,0.47
2022-10-14T10:54:38.869Z,0.30
2022-10-14T10:57:18.941Z,0.55
2022-10-14T10:59:59.259Z,0.68
2022-10-14T11:02:41.169Z,0.57
2022-10-14T11:05:24.187Z,0.38
2022-10-14T11:08:31.159Z,0.30
2022-10-14T11:11:42.267Z,0.45
2022-10-14T11:14:19.888Z,0.50
2022-10-14T11:17:05.806Z,0.57
2022-10-14T11:19:52.113Z,0.40
2022-10-14T11:22:38.975Z,0.40
2022-10-14T11:25:14.565Z,0.60
2022-10-14T11:27:46.312Z,0.50
2022-10-14T11:30:39.142Z,0.50
2022-10-14T11:33:52.394Z,0.50
2022-10-14T11:36:40.526Z,0.50
2022-10-14T11:39:42.597Z,0.40
2022-10-14T11:42:47.205Z,0.40
2022-10-14T11:45:20.284Z,0.40
2022-10-14T11:48:10.334Z,0.50
2022-10-14T11:50:42.021Z,0.45
2022-10-14T11:53:16.576Z,0.50
2022-10-14T11:55:50.370Z,0.50
2022-10-14T11:58:23.644Z,0.43
2022-10-14T12:01:20.993Z,0.50
2022-10-14T12:03:59.871Z,0.52
2022-10-14T12:06:43.235Z,0.57
2022-10-14T12:09:15.941Z,0.50
2022-10-14T12:11:56.150Z,0.60
2022-10-14T12:14:26.211Z,0.60
2022-10-14T12:16:56.020Z,0.75
2022-10-14T12:19:26.463Z,0.50
2022-10-14T12:22:17.468Z,0.40
2022-10-14T12:24:55.409Z,0.50
2022-10-14T12:27:25.894Z,0.45
2022-10-14T12:29:57.756Z,0.40
2022-10-14T12:32:31.929Z,0.63
2022-10-14T12:35:23.793Z,0.50
2022-10-14T12:37:51.771Z,0.40
2022-10-14T12:40:29.367Z,0.60
2022-10-14T12:43:01.421Z,0.50
2022-10-14T12:45:31.615Z,0.50
2022-10-14T12:48:06.924Z,2.35
2022-10-14T12:50:42.584Z,0.60
2022-10-14T12:53:33.834Z,0.50
2022-10-14T12:56:03.086Z,0.65
2022-10-14T12:58:38.082Z,0.63
2022-10-14T13:01:25.124Z,0.70
2022-10-14T13:04:03.782Z,8.90
2022-10-14T13:06:42.419Z,1.65
2022-10-14T13:09:12.271Z,0.90
2022-10-14T13:11:41.339Z,0.75
2022-10-14T13:14:25.965Z,0.57
2022-10-14T13:16:53.405Z,1.02
2022-10-14T13:19:35.342Z,0.75
2022-10-14T13:22:28.503Z,1.02
2022-10-14T13:25:18.601Z,0.70
2022-10-14T13:28:08.451Z,0.50
2022-10-14T13:30:51.276Z,0.73
2022-10-14T13:33:24.999Z,0.70
2022-10-14T13:36:15.550Z,0.60
2022-10-14T13:38:51.450Z,0.40
2022-10-14T13:41:29.868Z,0.63
2022-10-14T13:44:00.718Z,0.80
2022-10-14T13:46:34.000Z,0.55
2022-10-14T13:49:08.680Z,0.60
2022-10-14T13:51:50.585Z,0.68
2022-10-14T13:54:25.894Z,1.08
2022-10-14T13:57:42.609Z,0.70
2022-10-14T14:00:39.581Z,0.65
2022-10-14T14:02:44.690Z,0.90
2022-10-14T14:05:20.254Z,0.75
2022-10-14T14:10:42.523Z,0.60
2022-10-14T14:13:18.995Z,0.90
2022-10-14T14:15:51.199Z,0.70
2022-10-14T14:19:03.836Z,0.50
2022-10-14T14:21:34.265Z,0.68
2022-10-14T14:24:02.272Z,0.57
2022-10-14T14:26:37.740Z,0.60
2022-10-14T14:29:21.208Z,0.82
2022-10-14T14:34:39.610Z,0.63
2022-10-14T14:37:43.416Z,0.70
2022-10-14T14:40:02.805Z,1.08
2022-10-14T14:42:36.570Z,0.80
2022-10-14T14:45:08.014Z,0.80
2022-10-14T14:47:34.880Z,0.85
2022-10-14T14:50:30.051Z,0.70
2022-10-14T14:52:51.572Z,0.80
2022-10-14T14:55:54.478Z,0.70
2022-10-14T14:58:27.025Z,0.80
2022-10-14T15:00:55.635Z,0.70
2022-10-14T15:03:26.354Z,0.80
2022-10-14T15:05:58.308Z,0.90
2022-10-14T15:08:36.857Z,0.90
2022-10-14T15:11:04.644Z,0.85
2022-10-14T15:13:41.321Z,0.70
2022-10-14T15:16:08.801Z,1.20
2022-10-14T15:18:38.056Z,1.27
2022-10-14T15:21:04.939Z,1.38
2022-10-14T15:23:41.538Z,1.08
2022-10-14T15:26:31.959Z,1.15
2022-10-14T15:32:01.262Z,1.10
2022-10-14T15:34:28.601Z,1.05
2022-10-14T15:36:56.090Z,1.20
2022-10-14T15:39:23.527Z,1.45
2022-10-14T15:41:50.621Z,1.08
2022-10-14T15:44:17.405Z,1.00
2022-10-14T15:47:04.451Z,1.10
2022-10-14T15:49:40.217Z,1.15
2022-10-14T15:52:07.201Z,0.88
2022-10-14T15:54:34.025Z,1.17
2022-10-14T15:57:00.795Z,1.38
2022-10-14T15:59:27.705Z,2.10
2022-10-14T16:01:55.588Z,1.40
2022-10-14T16:04:26.339Z,0.90
2022-10-14T16:06:55.388Z,1.00
2022-10-14T16:09:24.132Z,1.00
2022-10-14T16:11:57.198Z,1.17
2022-10-14T16:14:27.174Z,1.40
2022-10-14T16:16:54.310Z,1.00
2022-10-14T16:19:21.059Z,1.00
2022-10-14T16:21:49.855Z,1.60
2022-10-14T16:24:20.281Z,1.50
2022-10-14T16:26:50.889Z,1.10
2022-10-14T16:29:19.015Z,1.13
2022-10-14T16:31:47.379Z,1.40
2022-10-14T16:34:14.137Z,1.95
2022-10-14T16:36:41.406Z,1.63
2022-10-14T16:39:13.069Z,1.48
2022-10-14T16:41:40.593Z,1.50
2022-10-14T16:44:07.747Z,1.52
2022-10-14T16:46:53.366Z,1.52
2022-10-14T16:49:20.345Z,1.60
2022-10-14T16:51:47.079Z,1.30
2022-10-14T16:54:14.158Z,1.35
2022-10-14T16:56:53.758Z,1.65
2022-10-14T16:59:21.754Z,1.63
2022-10-14T17:01:49.451Z,1.30
2022-10-14T17:04:19.671Z,1.48
2022-10-14T17:06:50.087Z,1.42
2022-10-14T17:09:18.341Z,1.70
2022-10-14T17:11:45.842Z,1.65
2022-10-14T17:14:15.731Z,1.73
2022-10-14T17:16:42.882Z,2.00
2022-10-14T17:19:12.166Z,1.70
2022-10-14T17:21:39.816Z,1.85
2022-10-14T17:24:07.529Z,1.90
2022-10-14T17:26:35.086Z,2.08
2022-10-14T17:29:02.217Z,2.88
2022-10-14T17:31:29.553Z,2.13
2022-10-14T17:33:58.554Z,1.90
2022-10-14T17:36:28.051Z,2.15
2022-10-14T17:38:57.267Z,2.00
2022-10-14T17:41:26.394Z,2.47
2022-10-14T17:43:54.447Z,2.10
2022-10-14T17:46:23.908Z,2.80
2022-10-14T17:48:53.432Z,2.22
2022-10-14T17:51:27.075Z,1.95
2022-10-14T17:54:05.735Z,2.72
2022-10-14T17:56:34.809Z,2.08
2022-10-14T17:59:04.569Z,3.42
2022-10-14T18:01:37.874Z,2.25
2022-10-14T18:06:47.420Z,1.73
2022-10-14T18:09:14.262Z,2.00
2022-10-14T18:14:30.514Z,2.67
2022-10-14T18:16:59.436Z,2.30
2022-10-14T18:19:27.849Z,1.83
2022-10-14T18:21:54.667Z,2.42
2022-10-14T18:24:21.783Z,2.45
2022-10-14T18:26:52.099Z,2.10
2022-10-14T18:29:19.021Z,2.40
2022-10-14T18:34:24.657Z,2.72
2022-10-14T18:36:51.649Z,2.23
2022-10-14T18:39:20.392Z,2.37
2022-10-14T18:41:47.559Z,2.13
2022-10-14T18:44:14.269Z,2.38
2022-10-14T18:46:42.177Z,2.00
2022-10-14T18:49:12.301Z,1.92
2022-10-14T18:51:40.671Z,1.90
2022-10-14T18:54:16.533Z,2.00
2022-10-14T18:56:46.535Z,2.03
2022-10-14T18:59:17.932Z,1.77
2022-10-14T19:01:46.588Z,2.20
2022-10-14T19:04:16.497Z,2.00
2022-10-14T19:06:48.935Z,2.53
2022-10-14T19:09:21.675Z,2.10
2022-10-14T19:11:52.525Z,2.37
2022-10-14T19:14:19.473Z,1.65
2022-10-14T19:16:47.660Z,2.13
2022-10-14T19:19:16.841Z,1.60
2022-10-14T19:21:54.490Z,1.80
2022-10-14T19:24:21.489Z,2.07
2022-10-14T19:26:48.867Z,1.53
2022-10-14T19:29:16.620Z,1.43
2022-10-14T19:31:44.201Z,1.43
2022-10-14T19:34:14.347Z,1.87
2022-10-14T19:36:41.460Z,1.97
2022-10-14T19:39:11.347Z,1.93
2022-10-14T19:41:43.203Z,1.63
2022-10-14T19:44:11.497Z,1.77
2022-10-14T19:46:38.996Z,1.70
2022-10-14T19:49:05.855Z,1.55
2022-10-14T19:51:34.389Z,1.90
2022-10-14T19:54:01.154Z,1.67
2022-10-14T19:56:29.330Z,1.60
2022-10-14T19:58:57.898Z,1.50
2022-10-14T20:01:28.095Z,1.77
2022-10-14T20:03:55.405Z,1.50
2022-10-14T20:06:22.998Z,1.93
2022-10-14T20:08:50.088Z,1.45
2022-10-14T20:11:19.784Z,1.50
2022-10-14T20:13:47.177Z,1.48
2022-10-14T20:16:14.422Z,1.60
2022-10-14T20:18:41.863Z,1.40
2022-10-14T20:21:11.865Z,1.42
2022-10-14T20:23:38.876Z,1.30
2022-10-14T20:26:17.720Z,1.33
2022-10-14T20:28:45.130Z,1.47
2022-10-14T20:31:14.785Z,1.38
2022-10-14T20:33:42.108Z,2.05
2022-10-14T20:36:16.233Z,1.63
2022-10-14T20:38:44.682Z,1.40
2022-10-14T20:41:15.476Z,2.20
2022-10-14T20:43:44.475Z,2.00
2022-10-14T20:46:11.239Z,1.80
2022-10-14T20:48:38.173Z,1.52
2022-10-14T20:51:09.336Z,1.50
2022-10-14T20:53:36.399Z,4.83
2022-10-14T20:56:05.609Z,2.13
2022-10-14T20:58:33.018Z,1.98
2022-10-14T21:01:10.991Z,1.80
2022-10-14T21:03:38.477Z,1.60
2022-10-14T21:06:08.734Z,1.37
2022-10-14T21:08:35.974Z,1.80
2022-10-14T21:11:10.599Z,1.70
2022-10-14T21:13:44.006Z,3.03
2022-10-14T21:16:20.150Z,2.40
2022-10-14T21:18:56.827Z,1.70
2022-10-14T21:21:28.735Z,1.70
2022-10-14T21:23:56.337Z,1.53
2022-10-14T21:26:23.474Z,1.60
2022-10-14T21:28:50.387Z,1.70
2022-10-14T21:31:19.270Z,1.60
2022-10-14T21:34:01.310Z,1.70
2022-10-14T21:36:32.017Z,1.97
2022-10-14T21:39:00.967Z,1.90
2022-10-14T21:41:28.936Z,1.70
2022-10-14T21:43:59.155Z,1.70
2022-10-14T21:46:26.902Z,2.00
2022-10-14T21:48:57.350Z,2.00
2022-10-14T21:51:30.247Z,2.00
2022-10-14T21:53:57.837Z,1.80
2022-10-14T21:56:25.943Z,1.80
2022-10-14T21:58:53.174Z,2.10
2022-10-14T22:01:23.045Z,1.70
2022-10-14T22:04:06.215Z,2.00
2022-10-14T22:06:36.000Z,1.80
2022-10-14T22:09:06.511Z,1.93
2022-10-14T22:11:38.710Z,1.73
2022-10-14T22:14:07.386Z,1.63
2022-10-14T22:16:35.544Z,2.00
2022-10-14T22:19:04.967Z,1.92
2022-10-14T22:21:35.747Z,1.67
2022-10-14T22:24:02.982Z,1.52
2022-10-14T22:26:30.610Z,1.50
2022-10-14T22:29:17.156Z,1.63
2022-10-14T22:31:45.631Z,1.80
2022-10-14T22:34:14.506Z,1.97
2022-10-14T22:36:42.066Z,1.93
2022-10-14T22:39:13.171Z,1.83
2022-10-14T22:41:39.906Z,1.87
2022-10-14T22:44:08.350Z,1.67
2022-10-14T22:46:36.939Z,1.90
2022-10-14T22:49:04.522Z,1.63
2022-10-14T22:51:34.394Z,1.92
2022-10-14T22:54:01.774Z,1.83
2022-10-14T22:56:31.139Z,1.60
2022-10-14T22:59:00.921Z,1.40
2022-10-14T23:01:28.418Z,1.90
2022-10-14T23:03:56.918Z,1.93
2022-10-14T23:06:24.104Z,1.30
2022-10-14T23:08:51.253Z,1.85
2022-10-14T23:11:20.262Z,2.00
2022-10-14T23:13:47.465Z,1.60
2022-10-14T23:16:17.991Z,1.43
2022-10-14T23:18:46.131Z,1.70
2022-10-14T23:21:20.484Z,1.65
2022-10-14T23:23:48.834Z,1.50
2022-10-14T23:26:21.427Z,1.47
2022-10-14T23:28:52.723Z,1.40
2022-10-14T23:31:22.464Z,1.70
2022-10-14T23:33:51.701Z,1.30
2022-10-14T23:36:19.950Z,1.30
2022-10-14T23:38:46.743Z,1.50
2022-10-14T23:41:15.173Z,1.50
2022-10-14T23:43:42.088Z,1.50
2022-10-14T23:46:09.005Z,1.30
2022-10-14T23:48:36.773Z,1.80
2022-10-14T23:51:04.328Z,1.60
2022-10-14T23:53:32.232Z,1.27
2022-10-14T23:56:00.329Z,1.30
2022-10-14T23:58:30.467Z,1.13
